sensor_id;sensor_type;location;lat;lon;timestamp;pressure;altitude;pressure_sealevel;temperature;humidity
26043;BME280;13818;52.156;5.382;2023-10-08T00:02:04;102009.16;;;18.96;100.00
26043;BME280;13818;52.156;5.382;2023-10-08T00:04:31;102022.72;;;18.95;100.00
26043;BME280;13818;52.156;5.382;2023-10-08T00:07:03;102026.75;;;18.88;100.00
26043;BME280;13818;52.156;5.382;2023-10-08T00:09:32;102039.78;;;18.81;100.00
26043;BME280;13818;52.156;5.382;2023-10-08T00:12:01;102042.09;;;18.73;100.00
26043;BME280;13818;52.156;5.382;2023-10-08T00:14:28;102058.09;;;18.76;100.00
26043;BME280;13818;52.156;5.382;2023-10-08T00:16:55;102056.34;;;18.75;100.00
26043;BME280;13818;52.156;5.382;2023-10-08T00:19:21;102051.03;;;18.73;100.00
26043;BME280;13818;52.156;5.382;2023-10-08T00:21:49;102044.78;;;18.73;100.00
26043;BME280;13818;52.156;5.382;2023-10-08T00:24:20;102043.06;;;18.72;100.00
26043;BME280;13818;52.156;5.382;2023-10-08T00:26:52;102052.78;;;18.74;100.00
26043;BME280;13818;52.156;5.382;2023-10-08T00:29:19;102049.31;;;18.72;100.00
26043;BME280;13818;52.156;5.382;2023-10-08T00:31:47;102039.41;;;18.73;100.00
26043;BME280;13818;52.156;5.382;2023-10-08T00:34:14;102044.59;;;18.76;100.00
26043;BME280;13818;52.156;5.382;2023-10-08T00:36:44;102031.19;;;18.74;100.00
26043;BME280;13818;52.156;5.382;2023-10-08T00:39:12;102020.78;;;18.82;100.00
26043;BME280;13818;52.156;5.382;2023-10-08T00:41:41;102028.88;;;18.82;100.00
26043;BME280;13818;52.156;5.382;2023-10-08T00:44:10;102027.91;;;18.83;100.00
26043;BME280;13818;52.156;5.382;2023-10-08T00:46:39;102019.03;;;18.81;100.00
26043;BME280;13818;52.156;5.382;2023-10-08T00:49:13;102017.19;;;18.82;100.00
26043;BME280;13818;52.156;5.382;2023-10-08T00:52:04;102015.84;;;18.89;100.00
26043;BME280;13818;52.156;5.382;2023-10-08T00:54:51;102013.56;;;18.97;100.00
26043;BME280;13818;52.156;5.382;2023-10-08T00:57:33;102010.66;;;19.15;100.00
26043;BME280;13818;52.156;5.382;2023-10-08T01:00:02;102010.56;;;19.02;100.00
26043;BME280;13818;52.156;5.382;2023-10-08T01:02:32;102008.44;;;19.07;100.00
26043;BME280;13818;52.156;5.382;2023-10-08T01:05:10;101996.22;;;19.01;100.00
26043;BME280;13818;52.156;5.382;2023-10-08T01:07:39;102004.09;;;19.05;100.00
26043;BME280;13818;52.156;5.382;2023-10-08T01:10:09;102001.41;;;19.05;100.00
26043;BME280;13818;52.156;5.382;2023-10-08T01:12:40;102002.94;;;19.09;100.00
26043;BME280;13818;52.156;5.382;2023-10-08T01:15:20;101992.72;;;18.99;100.00
26043;BME280;13818;52.156;5.382;2023-10-08T01:17:53;102001.91;;;18.97;100.00
26043;BME280;13818;52.156;5.382;2023-10-08T01:20:24;101994.47;;;19.00;100.00
26043;BME280;13818;52.156;5.382;2023-10-08T01:23:00;101999.41;;;18.94;100.00
26043;BME280;13818;52.156;5.382;2023-10-08T01:25:29;101997.22;;;18.84;100.00
26043;BME280;13818;52.156;5.382;2023-10-08T01:27:56;102010.06;;;18.81;100.00
26043;BME280;13818;52.156;5.382;2023-10-08T01:30:26;102010.63;;;18.72;100.00
26043;BME280;13818;52.156;5.382;2023-10-08T01:33:00;102015.84;;;18.60;100.00
26043;BME280;13818;52.156;5.382;2023-10-08T01:35:28;102023.16;;;18.58;100.00
26043;BME280;13818;52.156;5.382;2023-10-08T01:37:57;102037.44;;;18.60;100.00
26043;BME280;13818;52.156;5.382;2023-10-08T01:40:26;102031.19;;;18.60;100.00
26043;BME280;13818;52.156;5.382;2023-10-08T01:42:54;102023.25;;;18.57;100.00
26043;BME280;13818;52.156;5.382;2023-10-08T01:45:25;102026.84;;;18.57;100.00
26043;BME280;13818;52.156;5.382;2023-10-08T01:47:51;102038.69;;;18.54;100.00
26043;BME280;13818;52.156;5.382;2023-10-08T01:50:20;102036.00;;;18.54;100.00
26043;BME280;13818;52.156;5.382;2023-10-08T01:52:47;102032.28;;;18.41;100.00
26043;BME280;13818;52.156;5.382;2023-10-08T01:55:13;102061.31;;;18.37;100.00
26043;BME280;13818;52.156;5.382;2023-10-08T01:57:44;102054.16;;;18.36;100.00
26043;BME280;13818;52.156;5.382;2023-10-08T02:00:12;102069.75;;;18.31;100.00
26043;BME280;13818;52.156;5.382;2023-10-08T02:02:39;102066.38;;;18.28;100.00
26043;BME280;13818;52.156;5.382;2023-10-08T02:05:07;102085.25;;;18.28;100.00
26043;BME280;13818;52.156;5.382;2023-10-08T02:07:34;102077.84;;;18.31;100.00
26043;BME280;13818;52.156;5.382;2023-10-08T02:10:00;102071.50;;;18.32;100.00
26043;BME280;13818;52.156;5.382;2023-10-08T02:12:27;102070.72;;;18.30;100.00
26043;BME280;13818;52.156;5.382;2023-10-08T02:14:54;102080.75;;;18.28;100.00
26043;BME280;13818;52.156;5.382;2023-10-08T02:17:21;102085.56;;;18.23;100.00
26043;BME280;13818;52.156;5.382;2023-10-08T02:19:47;102075.88;;;18.19;100.00
26043;BME280;13818;52.156;5.382;2023-10-08T02:22:14;102074.34;;;18.15;100.00
26043;BME280;13818;52.156;5.382;2023-10-08T02:24:41;102059.88;;;18.16;100.00
26043;BME280;13818;52.156;5.382;2023-10-08T02:27:08;102026.78;;;18.28;100.00
26043;BME280;13818;52.156;5.382;2023-10-08T02:29:35;102074.56;;;18.26;100.00
26043;BME280;13818;52.156;5.382;2023-10-08T02:32:03;102082.94;;;18.21;100.00
26043;BME280;13818;52.156;5.382;2023-10-08T02:34:30;102093.22;;;18.15;100.00
26043;BME280;13818;52.156;5.382;2023-10-08T02:36:57;102094.28;;;18.12;100.00
26043;BME280;13818;52.156;5.382;2023-10-08T02:39:24;102069.03;;;18.13;100.00
26043;BME280;13818;52.156;5.382;2023-10-08T02:41:52;102066.25;;;18.15;100.00
26043;BME280;13818;52.156;5.382;2023-10-08T02:44:21;102042.91;;;18.14;100.00
26043;BME280;13818;52.156;5.382;2023-10-08T02:46:49;102045.59;;;18.14;100.00
26043;BME280;13818;52.156;5.382;2023-10-08T02:49:18;102040.09;;;18.15;100.00
26043;BME280;13818;52.156;5.382;2023-10-08T02:51:46;102103.56;;;18.07;100.00
26043;BME280;13818;52.156;5.382;2023-10-08T02:54:15;102084.78;;;18.05;100.00
26043;BME280;13818;52.156;5.382;2023-10-08T02:56:44;102072.44;;;18.01;100.00
26043;BME280;13818;52.156;5.382;2023-10-08T02:59:12;102091.50;;;17.98;100.00
26043;BME280;13818;52.156;5.382;2023-10-08T03:01:39;102087.59;;;18.03;100.00
26043;BME280;13818;52.156;5.382;2023-10-08T03:04:06;102052.16;;;18.10;100.00
26043;BME280;13818;52.156;5.382;2023-10-08T03:06:41;102076.25;;;18.13;100.00
26043;BME280;13818;52.156;5.382;2023-10-08T03:09:07;102091.31;;;18.01;100.00
26043;BME280;13818;52.156;5.382;2023-10-08T03:11:34;102073.28;;;18.17;100.00
26043;BME280;13818;52.156;5.382;2023-10-08T03:14:02;102083.63;;;18.25;100.00
26043;BME280;13818;52.156;5.382;2023-10-08T03:16:28;102077.75;;;18.33;100.00
26043;BME280;13818;52.156;5.382;2023-10-08T03:19:00;102082.22;;;18.34;100.00
26043;BME280;13818;52.156;5.382;2023-10-08T03:21:26;102083.63;;;18.25;100.00
26043;BME280;13818;52.156;5.382;2023-10-08T03:24:08;102076.06;;;18.16;100.00
26043;BME280;13818;52.156;5.382;2023-10-08T03:26:49;102065.41;;;18.29;100.00
26043;BME280;13818;52.156;5.382;2023-10-08T03:29:20;102067.66;;;18.36;100.00
26043;BME280;13818;52.156;5.382;2023-10-08T03:31:49;102071.41;;;18.34;100.00
26043;BME280;13818;52.156;5.382;2023-10-08T03:34:16;102083.53;;;18.27;100.00
26043;BME280;13818;52.156;5.382;2023-10-08T03:36:45;102106.72;;;18.15;100.00
26043;BME280;13818;52.156;5.382;2023-10-08T03:39:14;102141.44;;;18.05;100.00
26043;BME280;13818;52.156;5.382;2023-10-08T03:41:41;102128.03;;;18.03;100.00
26043;BME280;13818;52.156;5.382;2023-10-08T03:44:16;102131.69;;;18.02;100.00
26043;BME280;13818;52.156;5.382;2023-10-08T03:46:45;102131.09;;;17.97;100.00
26043;BME280;13818;52.156;5.382;2023-10-08T03:49:13;102116.41;;;18.03;100.00
26043;BME280;13818;52.156;5.382;2023-10-08T03:51:51;102127.34;;;18.00;100.00
26043;BME280;13818;52.156;5.382;2023-10-08T03:54:19;102140.72;;;17.85;100.00
26043;BME280;13818;52.156;5.382;2023-10-08T03:56:55;102149.00;;;17.66;100.00
26043;BME280;13818;52.156;5.382;2023-10-08T03:59:22;102152.41;;;17.36;100.00
26043;BME280;13818;52.156;5.382;2023-10-08T04:01:57;102161.47;;;17.18;100.00
26043;BME280;13818;52.156;5.382;2023-10-08T04:04:26;102153.16;;;17.22;100.00
26043;BME280;13818;52.156;5.382;2023-10-08T04:06:58;102164.66;;;17.08;100.00
26043;BME280;13818;52.156;5.382;2023-10-08T04:09:49;102202.06;;;17.15;100.00
26043;BME280;13818;52.156;5.382;2023-10-08T04:12:20;102187.47;;;17.01;100.00
26043;BME280;13818;52.156;5.382;2023-10-08T04:14:46;102195.06;;;16.93;100.00
26043;BME280;13818;52.156;5.382;2023-10-08T04:17:13;102190.66;;;16.92;100.00
26043;BME280;13818;52.156;5.382;2023-10-08T04:19:47;102191.66;;;16.89;100.00
26043;BME280;13818;52.156;5.382;2023-10-08T04:22:13;102181.56;;;16.58;100.00
26043;BME280;13818;52.156;5.382;2023-10-08T04:24:43;102184.38;;;16.37;100.00
26043;BME280;13818;52.156;5.382;2023-10-08T04:27:11;102181.94;;;16.14;100.00
26043;BME280;13818;52.156;5.382;2023-10-08T04:29:37;102180.41;;;16.08;100.00
26043;BME280;13818;52.156;5.382;2023-10-08T04:32:04;102186.09;;;16.02;100.00
26043;BME280;13818;52.156;5.382;2023-10-08T04:34:37;102169.31;;;15.97;100.00
26043;BME280;13818;52.156;5.382;2023-10-08T04:37:09;102165.03;;;15.92;100.00
26043;BME280;13818;52.156;5.382;2023-10-08T04:39:38;102160.50;;;15.93;100.00
26043;BME280;13818;52.156;5.382;2023-10-08T04:42:06;102153.25;;;15.95;100.00
26043;BME280;13818;52.156;5.382;2023-10-08T04:44:37;102146.25;;;15.91;100.00
26043;BME280;13818;52.156;5.382;2023-10-08T04:47:06;102144.75;;;15.85;100.00
26043;BME280;13818;52.156;5.382;2023-10-08T04:49:33;102150.03;;;15.87;100.00
26043;BME280;13818;52.156;5.382;2023-10-08T04:52:04;102181.66;;;15.82;100.00
26043;BME280;13818;52.156;5.382;2023-10-08T04:54:34;102189.78;;;15.80;100.00
26043;BME280;13818;52.156;5.382;2023-10-08T04:57:06;102200.47;;;15.82;100.00
26043;BME280;13818;52.156;5.382;2023-10-08T04:59:41;102199.38;;;15.86;100.00
26043;BME280;13818;52.156;5.382;2023-10-08T05:02:09;102198.38;;;15.88;100.00
26043;BME280;13818;52.156;5.382;2023-10-08T05:04:59;102198.06;;;15.94;100.00
26043;BME280;13818;52.156;5.382;2023-10-08T05:07:43;102205.19;;;15.96;100.00
26043;BME280;13818;52.156;5.382;2023-10-08T05:10:55;102187.38;;;16.12;100.00
26043;BME280;13818;52.156;5.382;2023-10-08T05:13:39;102178.84;;;16.04;100.00
26043;BME280;13818;52.156;5.382;2023-10-08T05:16:20;102196.31;;;15.93;100.00
26043;BME280;13818;52.156;5.382;2023-10-08T05:19:08;102200.66;;;15.77;100.00
26043;BME280;13818;52.156;5.382;2023-10-08T05:22:02;102207.00;;;15.76;100.00
26043;BME280;13818;52.156;5.382;2023-10-08T05:24:43;102220.44;;;15.76;100.00
26043;BME280;13818;52.156;5.382;2023-10-08T05:27:17;102234.00;;;15.73;100.00
26043;BME280;13818;52.156;5.382;2023-10-08T05:30:23;102233.63;;;15.81;100.00
26043;BME280;13818;52.156;5.382;2023-10-08T05:32:54;102239.91;;;15.81;100.00
26043;BME280;13818;52.156;5.382;2023-10-08T05:35:38;102238.91;;;15.63;100.00
26043;BME280;13818;52.156;5.382;2023-10-08T05:38:20;102233.03;;;15.55;100.00
26043;BME280;13818;52.156;5.382;2023-10-08T05:41:03;102232.09;;;15.35;100.00
26043;BME280;13818;52.156;5.382;2023-10-08T05:43:54;102244.03;;;15.28;100.00
26043;BME280;13818;52.156;5.382;2023-10-08T05:46:38;102263.44;;;14.93;100.00
26043;BME280;13818;52.156;5.382;2023-10-08T05:49:16;102262.97;;;14.60;100.00
26043;BME280;13818;52.156;5.382;2023-10-08T05:52:00;102298.97;;;14.54;100.00
26043;BME280;13818;52.156;5.382;2023-10-08T05:54:50;102288.25;;;14.54;100.00
26043;BME280;13818;52.156;5.382;2023-10-08T05:57:34;102259.47;;;14.36;100.00
26043;BME280;13818;52.156;5.382;2023-10-08T06:00:08;102254.47;;;14.26;100.00
26043;BME280;13818;52.156;5.382;2023-10-08T06:03:10;102244.75;;;14.24;100.00
26043;BME280;13818;52.156;5.382;2023-10-08T06:05:57;102241.31;;;14.20;100.00
26043;BME280;13818;52.156;5.382;2023-10-08T06:08:47;102253.88;;;14.18;100.00
26043;BME280;13818;52.156;5.382;2023-10-08T06:11:34;102263.69;;;14.19;100.00
26043;BME280;13818;52.156;5.382;2023-10-08T06:14:10;102271.63;;;14.22;100.00
26043;BME280;13818;52.156;5.382;2023-10-08T06:16:40;102280.00;;;14.13;100.00
26043;BME280;13818;52.156;5.382;2023-10-08T06:19:12;102297.03;;;14.12;100.00
26043;BME280;13818;52.156;5.382;2023-10-08T06:21:39;102289.97;;;14.09;100.00
26043;BME280;13818;52.156;5.382;2023-10-08T06:24:07;102288.50;;;14.00;100.00
26043;BME280;13818;52.156;5.382;2023-10-08T06:26:38;102292.16;;;13.99;100.00
26043;BME280;13818;52.156;5.382;2023-10-08T06:29:10;102300.34;;;13.95;100.00
26043;BME280;13818;52.156;5.382;2023-10-08T06:31:54;102304.84;;;13.94;100.00
26043;BME280;13818;52.156;5.382;2023-10-08T06:34:21;102304.66;;;13.99;100.00
26043;BME280;13818;52.156;5.382;2023-10-08T06:36:49;102296.81;;;13.94;100.00
26043;BME280;13818;52.156;5.382;2023-10-08T06:39:19;102302.75;;;14.03;100.00
26043;BME280;13818;52.156;5.382;2023-10-08T06:41:52;102300.69;;;14.09;100.00
26043;BME280;13818;52.156;5.382;2023-10-08T06:44:18;102316.78;;;14.09;100.00
26043;BME280;13818;52.156;5.382;2023-10-08T06:46:45;102326.81;;;14.04;100.00
26043;BME280;13818;52.156;5.382;2023-10-08T06:49:14;102313.84;;;13.92;100.00
26043;BME280;13818;52.156;5.382;2023-10-08T06:51:43;102310.44;;;13.88;100.00
26043;BME280;13818;52.156;5.382;2023-10-08T06:54:10;102304.94;;;13.91;100.00
26043;BME280;13818;52.156;5.382;2023-10-08T06:56:39;102318.28;;;13.93;100.00
26043;BME280;13818;52.156;5.382;2023-10-08T06:59:11;102313.28;;;13.83;100.00
26043;BME280;13818;52.156;5.382;2023-10-08T07:01:37;102319.50;;;13.84;100.00
26043;BME280;13818;52.156;5.382;2023-10-08T07:04:05;102319.13;;;13.95;100.00
26043;BME280;13818;52.156;5.382;2023-10-08T07:06:38;102327.16;;;13.95;100.00
26043;BME280;13818;52.156;5.382;2023-10-08T07:09:05;102331.47;;;13.99;100.00
26043;BME280;13818;52.156;5.382;2023-10-08T07:11:39;102328.00;;;13.97;100.00
26043;BME280;13818;52.156;5.382;2023-10-08T07:14:09;102329.47;;;14.04;100.00
26043;BME280;13818;52.156;5.382;2023-10-08T07:16:39;102324.31;;;13.99;100.00
26043;BME280;13818;52.156;5.382;2023-10-08T07:19:07;102336.44;;;14.10;100.00
26043;BME280;13818;52.156;5.382;2023-10-08T07:21:44;102342.88;;;14.04;100.00
26043;BME280;13818;52.156;5.382;2023-10-08T07:24:11;102337.88;;;13.95;100.00
26043;BME280;13818;52.156;5.382;2023-10-08T07:26:40;102333.91;;;14.05;100.00
26043;BME280;13818;52.156;5.382;2023-10-08T07:29:12;102340.41;;;13.99;100.00
26043;BME280;13818;52.156;5.382;2023-10-08T07:31:42;102343.81;;;14.03;100.00
26043;BME280;13818;52.156;5.382;2023-10-08T07:34:14;102336.31;;;14.13;100.00
26043;BME280;13818;52.156;5.382;2023-10-08T07:36:46;102344.13;;;14.19;100.00
26043;BME280;13818;52.156;5.382;2023-10-08T07:39:14;102335.53;;;14.11;100.00
26043;BME280;13818;52.156;5.382;2023-10-08T07:41:51;102326.41;;;14.15;100.00
26043;BME280;13818;52.156;5.382;2023-10-08T07:44:19;102327.94;;;14.22;100.00
26043;BME280;13818;52.156;5.382;2023-10-08T07:46:46;102344.50;;;14.34;100.00
26043;BME280;13818;52.156;5.382;2023-10-08T07:49:13;102338.78;;;14.43;100.00
26043;BME280;13818;52.156;5.382;2023-10-08T07:51:39;102351.78;;;14.54;100.00
26043;BME280;13818;52.156;5.382;2023-10-08T07:54:07;102365.69;;;14.63;100.00
26043;BME280;13818;52.156;5.382;2023-10-08T07:56:35;102371.59;;;14.73;100.00
26043;BME280;13818;52.156;5.382;2023-10-08T07:59:03;102374.06;;;14.79;100.00
26043;BME280;13818;52.156;5.382;2023-10-08T08:01:34;102373.00;;;14.84;100.00
26043;BME280;13818;52.156;5.382;2023-10-08T08:04:02;102379.81;;;14.92;100.00
26043;BME280;13818;52.156;5.382;2023-10-08T08:06:29;102374.25;;;14.97;100.00
26043;BME280;13818;52.156;5.382;2023-10-08T08:08:56;102382.69;;;15.10;100.00
26043;BME280;13818;52.156;5.382;2023-10-08T08:11:24;102380.44;;;15.21;100.00
26043;BME280;13818;52.156;5.382;2023-10-08T08:13:51;102383.50;;;15.12;100.00
26043;BME280;13818;52.156;5.382;2023-10-08T08:16:18;102394.31;;;15.10;100.00
26043;BME280;13818;52.156;5.382;2023-10-08T08:18:46;102387.25;;;15.08;100.00
26043;BME280;13818;52.156;5.382;2023-10-08T08:21:14;102393.66;;;15.04;100.00
26043;BME280;13818;52.156;5.382;2023-10-08T08:23:42;102389.94;;;15.08;100.00
26043;BME280;13818;52.156;5.382;2023-10-08T08:26:13;102384.84;;;15.00;100.00
26043;BME280;13818;52.156;5.382;2023-10-08T08:28:53;102396.94;;;15.12;100.00
26043;BME280;13818;52.156;5.382;2023-10-08T08:31:22;102412.59;;;15.01;100.00
26043;BME280;13818;52.156;5.382;2023-10-08T08:33:50;102412.41;;;14.83;100.00
26043;BME280;13818;52.156;5.382;2023-10-08T08:36:22;102420.22;;;14.89;100.00
26043;BME280;13818;52.156;5.382;2023-10-08T08:38:49;102429.56;;;15.01;100.00
26043;BME280;13818;52.156;5.382;2023-10-08T08:41:16;102437.78;;;14.98;100.00
26043;BME280;13818;52.156;5.382;2023-10-08T08:43:47;102446.13;;;15.12;100.00
26043;BME280;13818;52.156;5.382;2023-10-08T08:46:15;102434.88;;;15.03;100.00
26043;BME280;13818;52.156;5.382;2023-10-08T08:48:43;102433.63;;;15.11;100.00
26043;BME280;13818;52.156;5.382;2023-10-08T08:51:10;102432.97;;;15.28;100.00
26043;BME280;13818;52.156;5.382;2023-10-08T08:53:39;102420.91;;;15.39;100.00
26043;BME280;13818;52.156;5.382;2023-10-08T08:56:07;102413.78;;;15.38;100.00
26043;BME280;13818;52.156;5.382;2023-10-08T08:58:36;102405.47;;;15.44;100.00
26043;BME280;13818;52.156;5.382;2023-10-08T09:01:03;102405.09;;;15.53;100.00
26043;BME280;13818;52.156;5.382;2023-10-08T09:03:32;102408.06;;;15.68;100.00
26043;BME280;13818;52.156;5.382;2023-10-08T09:05:59;102418.13;;;15.85;100.00
26043;BME280;13818;52.156;5.382;2023-10-08T09:08:28;102405.97;;;15.74;100.00
26043;BME280;13818;52.156;5.382;2023-10-08T09:10:57;102400.59;;;15.74;100.00
26043;BME280;13818;52.156;5.382;2023-10-08T09:13:26;102399.59;;;15.77;100.00
26043;BME280;13818;52.156;5.382;2023-10-08T09:15:56;102405.09;;;15.74;100.00
26043;BME280;13818;52.156;5.382;2023-10-08T09:18:23;102384.53;;;15.73;100.00
26043;BME280;13818;52.156;5.382;2023-10-08T09:20:53;102391.00;;;15.69;100.00
26043;BME280;13818;52.156;5.382;2023-10-08T09:23:20;102394.91;;;15.82;100.00
26043;BME280;13818;52.156;5.382;2023-10-08T09:25:47;102397.06;;;15.94;100.00
26043;BME280;13818;52.156;5.382;2023-10-08T09:28:15;102406.78;;;15.76;100.00
26043;BME280;13818;52.156;5.382;2023-10-08T09:30:42;102415.97;;;15.71;100.00
26043;BME280;13818;52.156;5.382;2023-10-08T09:33:12;102414.66;;;15.81;100.00
26043;BME280;13818;52.156;5.382;2023-10-08T09:35:38;102414.84;;;15.99;100.00
26043;BME280;13818;52.156;5.382;2023-10-08T09:38:07;102412.13;;;16.19;100.00
26043;BME280;13818;52.156;5.382;2023-10-08T09:40:35;102422.34;;;16.11;100.00
26043;BME280;13818;52.156;5.382;2023-10-08T09:43:02;102421.66;;;16.26;100.00
26043;BME280;13818;52.156;5.382;2023-10-08T09:45:30;102423.06;;;16.35;100.00
26043;BME280;13818;52.156;5.382;2023-10-08T09:47:58;102420.03;;;16.43;100.00
26043;BME280;13818;52.156;5.382;2023-10-08T09:50:27;102420.09;;;16.41;100.00
26043;BME280;13818;52.156;5.382;2023-10-08T09:53:00;102413.25;;;16.34;100.00
26043;BME280;13818;52.156;5.382;2023-10-08T09:55:30;102403.91;;;16.22;100.00
26043;BME280;13818;52.156;5.382;2023-10-08T09:57:57;102415.28;;;16.29;100.00
26043;BME280;13818;52.156;5.382;2023-10-08T10:00:24;102419.09;;;16.23;100.00
26043;BME280;13818;52.156;5.382;2023-10-08T10:02:58;102415.66;;;16.20;100.00
26043;BME280;13818;52.156;5.382;2023-10-08T10:05:29;102406.75;;;16.19;100.00
26043;BME280;13818;52.156;5.382;2023-10-08T10:07:56;102399.56;;;16.39;100.00
26043;BME280;13818;52.156;5.382;2023-10-08T10:10:26;102396.81;;;16.40;100.00
26043;BME280;13818;52.156;5.382;2023-10-08T10:12:57;102393.19;;;16.41;100.00
26043;BME280;13818;52.156;5.382;2023-10-08T10:15:24;102400.94;;;16.48;100.00
26043;BME280;13818;52.156;5.382;2023-10-08T10:17:51;102406.00;;;16.55;100.00
26043;BME280;13818;52.156;5.382;2023-10-08T10:20:17;102410.56;;;16.53;100.00
26043;BME280;13818;52.156;5.382;2023-10-08T10:22:47;102410.50;;;16.55;100.00
26043;BME280;13818;52.156;5.382;2023-10-08T10:25:16;102410.38;;;16.58;100.00
26043;BME280;13818;52.156;5.382;2023-10-08T10:28:24;102419.88;;;16.65;100.00
26043;BME280;13818;52.156;5.382;2023-10-08T10:30:52;102414.22;;;16.71;100.00
26043;BME280;13818;52.156;5.382;2023-10-08T10:33:18;102412.44;;;16.51;100.00
26043;BME280;13818;52.156;5.382;2023-10-08T10:35:50;102413.44;;;16.69;100.00
26043;BME280;13818;52.156;5.382;2023-10-08T10:38:18;102421.06;;;16.59;100.00
26043;BME280;13818;52.156;5.382;2023-10-08T10:40:48;102424.13;;;16.52;100.00
26043;BME280;13818;52.156;5.382;2023-10-08T10:43:24;102430.41;;;16.32;100.00
26043;BME280;13818;52.156;5.382;2023-10-08T10:45:58;102424.22;;;16.30;100.00
26043;BME280;13818;52.156;5.382;2023-10-08T10:48:25;102426.38;;;16.21;100.00
26043;BME280;13818;52.156;5.382;2023-10-08T10:50:59;102426.28;;;16.43;100.00
26043;BME280;13818;52.156;5.382;2023-10-08T10:53:37;102412.16;;;16.57;100.00
26043;BME280;13818;52.156;5.382;2023-10-08T10:56:12;102411.41;;;16.74;100.00
26043;BME280;13818;52.156;5.382;2023-10-08T10:58:45;102408.81;;;16.90;100.00
26043;BME280;13818;52.156;5.382;2023-10-08T11:01:18;102396.72;;;17.01;100.00
26043;BME280;13818;52.156;5.382;2023-10-08T11:03:49;102404.53;;;17.05;100.00
26043;BME280;13818;52.156;5.382;2023-10-08T11:06:17;102398.69;;;16.97;100.00
26043;BME280;13818;52.156;5.382;2023-10-08T11:08:49;102396.53;;;17.04;100.00
26043;BME280;13818;52.156;5.382;2023-10-08T11:11:16;102398.72;;;17.15;100.00
26043;BME280;13818;52.156;5.382;2023-10-08T11:13:44;102404.19;;;17.31;100.00
26043;BME280;13818;52.156;5.382;2023-10-08T11:16:17;102408.84;;;17.46;100.00
26043;BME280;13818;52.156;5.382;2023-10-08T11:18:47;102408.69;;;17.49;100.00
26043;BME280;13818;52.156;5.382;2023-10-08T11:21:15;102406.06;;;17.48;100.00
26043;BME280;13818;52.156;5.382;2023-10-08T11:23:48;102403.47;;;17.46;100.00
26043;BME280;13818;52.156;5.382;2023-10-08T11:26:22;102403.19;;;17.51;100.00
26043;BME280;13818;52.156;5.382;2023-10-08T11:28:58;102399.00;;;17.45;100.00
26043;BME280;13818;52.156;5.382;2023-10-08T11:31:27;102397.97;;;17.30;100.00
26043;BME280;13818;52.156;5.382;2023-10-08T11:33:59;102394.63;;;17.25;100.00
26043;BME280;13818;52.156;5.382;2023-10-08T11:36:27;102395.06;;;17.16;100.00
26043;BME280;13818;52.156;5.382;2023-10-08T11:38:55;102390.06;;;17.08;100.00
26043;BME280;13818;52.156;5.382;2023-10-08T11:41:27;102403.25;;;16.95;100.00
26043;BME280;13818;52.156;5.382;2023-10-08T11:43:57;102393.84;;;16.85;100.00
26043;BME280;13818;52.156;5.382;2023-10-08T11:46:25;102394.66;;;16.87;100.00
26043;BME280;13818;52.156;5.382;2023-10-08T11:48:53;102392.00;;;16.85;100.00
26043;BME280;13818;52.156;5.382;2023-10-08T11:51:23;102384.41;;;16.95;100.00
26043;BME280;13818;52.156;5.382;2023-10-08T11:53:49;102384.09;;;17.01;100.00
26043;BME280;13818;52.156;5.382;2023-10-08T11:56:16;102385.84;;;17.02;100.00
26043;BME280;13818;52.156;5.382;2023-10-08T11:58:46;102374.63;;;17.12;100.00
26043;BME280;13818;52.156;5.382;2023-10-08T12:01:14;102373.38;;;17.19;100.00
26043;BME280;13818;52.156;5.382;2023-10-08T12:03:43;102374.31;;;17.18;100.00
26043;BME280;13818;52.156;5.382;2023-10-08T12:06:10;102367.81;;;17.22;100.00
26043;BME280;13818;52.156;5.382;2023-10-08T12:08:41;102354.19;;;17.25;100.00
26043;BME280;13818;52.156;5.382;2023-10-08T12:11:07;102351.72;;;17.20;100.00
26043;BME280;13818;52.156;5.382;2023-10-08T12:13:37;102343.50;;;17.23;100.00
26043;BME280;13818;52.156;5.382;2023-10-08T12:16:03;102334.78;;;17.36;100.00
26043;BME280;13818;52.156;5.382;2023-10-08T12:18:38;102326.78;;;17.34;100.00
26043;BME280;13818;52.156;5.382;2023-10-08T12:21:05;102331.53;;;17.29;100.00
26043;BME280;13818;52.156;5.382;2023-10-08T12:23:35;102323.34;;;17.31;100.00
26043;BME280;13818;52.156;5.382;2023-10-08T12:26:03;102333.41;;;17.27;100.00
26043;BME280;13818;52.156;5.382;2023-10-08T12:28:33;102317.09;;;17.13;100.00
26043;BME280;13818;52.156;5.382;2023-10-08T12:31:01;102322.31;;;17.16;100.00
26043;BME280;13818;52.156;5.382;2023-10-08T12:33:29;102323.97;;;17.18;100.00
26043;BME280;13818;52.156;5.382;2023-10-08T12:35:58;102314.91;;;17.21;100.00
26043;BME280;13818;52.156;5.382;2023-10-08T12:38:36;102321.16;;;17.21;100.00
26043;BME280;13818;52.156;5.382;2023-10-08T12:41:02;102314.72;;;17.24;100.00
26043;BME280;13818;52.156;5.382;2023-10-08T12:43:36;102307.19;;;17.31;100.00
26043;BME280;13818;52.156;5.382;2023-10-08T12:46:04;102309.03;;;17.30;100.00
26043;BME280;13818;52.156;5.382;2023-10-08T12:48:36;102299.59;;;17.21;100.00
26043;BME280;13818;52.156;5.382;2023-10-08T12:51:04;102308.41;;;17.25;100.00
26043;BME280;13818;52.156;5.382;2023-10-08T12:53:32;102293.34;;;17.21;100.00
26043;BME280;13818;52.156;5.382;2023-10-08T12:56:00;102296.41;;;17.13;100.00
26043;BME280;13818;52.156;5.382;2023-10-08T12:58:31;102292.63;;;17.17;100.00
26043;BME280;13818;52.156;5.382;2023-10-08T13:01:04;102290.31;;;17.10;100.00